createdAt,value
2019-04-05T00:01:25.677Z,19.50
2019-04-05T00:03:55.367Z,19.60
2019-04-05T00:06:24.803Z,19.37
2019-04-05T00:08:54.082Z,22.03
2019-04-05T00:11:23.430Z,21.30
2019-04-05T00:13:52.823Z,20.50
2019-04-05T00:16:22.181Z,20.87
2019-04-05T00:18:51.463Z,22.33
2019-04-05T00:21:20.784Z,22.87
2019-04-05T00:23:50.070Z,22.60
2019-04-05T00:26:19.371Z,23.47
2019-04-05T00:28:51.628Z,22.90
2019-04-05T00:31:19.761Z,23.73
2019-04-05T00:33:49.049Z,24.37
2019-04-05T00:36:18.374Z,24.70
2019-04-05T00:38:48.511Z,24.40
2019-04-05T00:41:17.762Z,22.20
2019-04-05T00:43:47.085Z,25.37
2019-04-05T00:46:16.389Z,25.93
2019-04-05T00:48:45.669Z,24.97
2019-04-05T00:51:14.994Z,25.50
2019-04-05T00:53:44.273Z,25.57
2019-04-05T00:56:13.563Z,24.30
2019-04-05T00:58:42.869Z,24.30
2019-04-05T01:01:12.218Z,25.70
2019-04-05T01:03:41.515Z,26.30
2019-04-05T01:06:10.802Z,26.57
2019-04-05T01:08:40.441Z,24.40
2019-04-05T01:11:09.710Z,27.47
2019-04-05T01:13:39.342Z,27.23
2019-04-05T01:16:08.617Z,27.07
2019-04-05T01:18:37.907Z,26.80
2019-04-05T01:21:07.254Z,27.03
2019-04-05T01:23:36.531Z,27.13
2019-04-05T01:26:05.805Z,28.70
2019-04-05T01:28:35.524Z,29.47
2019-04-05T01:31:04.805Z,25.90
2019-04-05T01:33:34.130Z,28.60
2019-04-05T01:36:03.490Z,26.73
2019-04-05T01:38:33.179Z,27.00
2019-04-05T01:41:02.635Z,27.40
2019-04-05T01:43:31.918Z,26.50
2019-04-05T01:46:01.306Z,27.20
2019-04-05T01:48:30.538Z,27.10
2019-04-05T01:50:59.853Z,26.40
2019-04-05T01:53:29.308Z,25.90
2019-04-05T01:55:58.608Z,28.80
2019-04-05T01:58:27.955Z,25.17
2019-04-05T02:00:57.602Z,26.87
2019-04-05T02:03:26.877Z,26.43
2019-04-05T02:05:56.203Z,27.23
2019-04-05T02:08:25.515Z,28.13
2019-04-05T02:10:54.982Z,25.73
2019-04-05T02:13:24.378Z,24.07
2019-04-05T02:16:05.375Z,27.73
2019-04-05T02:18:24.636Z,26.30
2019-04-05T02:20:53.925Z,28.57
2019-04-05T02:23:23.210Z,26.87
2019-04-05T02:25:52.500Z,28.10
2019-04-05T02:28:21.799Z,27.83
2019-04-05T02:30:51.082Z,30.00
2019-04-05T02:33:20.629Z,28.20
2019-04-05T02:35:49.921Z,28.50
2019-04-05T02:38:19.199Z,27.87
2019-04-05T02:40:48.903Z,27.30
2019-04-05T02:43:37.654Z,27.57
2019-04-05T02:46:22.770Z,28.60
2019-04-05T02:48:38.187Z,27.17
2019-04-05T02:51:26.703Z,31.80
2019-04-05T02:53:56.379Z,31.57
2019-04-05T02:56:25.822Z,32.30
2019-04-05T02:58:55.127Z,34.60
2019-04-05T03:01:24.440Z,33.17
2019-04-05T03:03:53.746Z,33.90
2019-04-05T03:06:23.052Z,35.20
2019-04-05T03:08:52.527Z,35.77
2019-04-05T03:11:21.814Z,34.27
2019-04-05T03:14:10.935Z,35.97
2019-04-05T03:16:42.224Z,34.67
2019-04-05T03:19:16.627Z,37.10
2019-04-05T03:21:49.045Z,32.13
2019-04-05T03:24:20.245Z,36.80
2019-04-05T03:26:56.660Z,32.97
2019-04-05T03:29:26.077Z,33.13
2019-04-05T03:31:55.364Z,34.30
2019-04-05T03:34:24.821Z,34.80
2019-04-05T03:36:54.231Z,33.50
2019-04-05T03:39:24.257Z,33.80
2019-04-05T03:41:54.207Z,33.63
2019-04-05T03:44:23.549Z,32.50
2019-04-05T03:46:56.835Z,31.87
2019-04-05T03:49:23.879Z,33.43
2019-04-05T03:51:53.305Z,33.50
2019-04-05T03:54:22.621Z,33.00
2019-04-05T03:56:51.957Z,33.67
2019-04-05T03:59:21.245Z,33.00
2019-04-05T04:01:50.712Z,32.00
2019-04-05T04:04:20.366Z,32.73
2019-04-05T04:06:49.651Z,32.47
2019-04-05T04:09:19.040Z,30.43
2019-04-05T04:11:48.704Z,32.37
2019-04-05T04:14:18.158Z,33.27
2019-04-05T04:16:47.558Z,32.20
2019-04-05T04:19:17.174Z,31.83
2019-04-05T04:21:57.082Z,31.60
2019-04-05T04:24:26.490Z,30.10
2019-04-05T04:26:56.161Z,29.30
2019-04-05T04:29:25.897Z,32.10
2019-04-05T04:31:55.671Z,30.77
2019-04-05T04:34:25.555Z,29.97
2019-04-05T04:36:54.783Z,29.83
2019-04-05T04:39:24.076Z,31.30
2019-04-05T04:41:53.379Z,30.13
2019-04-05T04:44:22.664Z,32.67
2019-04-05T04:46:52.100Z,31.10
2019-04-05T04:49:21.416Z,30.50
2019-04-05T04:51:50.710Z,30.20
2019-04-05T04:54:20.094Z,28.40
2019-04-05T04:56:49.381Z,29.10
2019-04-05T04:59:18.823Z,33.33
2019-04-05T05:01:48.154Z,31.10
2019-04-05T05:04:17.730Z,32.20
2019-04-05T05:06:47.046Z,32.70
2019-04-05T05:09:16.557Z,33.00
2019-04-05T05:11:46.247Z,34.03
2019-04-05T05:14:15.871Z,31.60
2019-04-05T05:16:45.333Z,34.00
2019-04-05T05:19:15.274Z,34.30
2019-04-05T05:21:45.349Z,34.77
2019-04-05T05:24:14.682Z,36.20
2019-04-05T05:26:43.977Z,34.43
2019-04-05T05:29:13.410Z,35.23
2019-04-05T05:31:42.703Z,35.07
2019-04-05T05:34:12.027Z,35.60
2019-04-05T05:36:41.466Z,36.93
2019-04-05T05:39:10.745Z,38.07
2019-04-05T05:41:59.206Z,39.30
2019-04-05T05:44:28.493Z,35.50
2019-04-05T05:46:58.143Z,37.27
2019-04-05T05:49:27.527Z,37.20
2019-04-05T05:52:16.256Z,37.87
2019-04-05T05:54:45.530Z,40.53
2019-04-05T05:57:14.899Z,38.73
2019-04-05T05:59:44.182Z,40.30
2019-04-05T06:02:13.643Z,39.97
2019-04-05T06:04:43.438Z,40.70
2019-04-05T06:07:13.002Z,40.50
2019-04-05T06:09:42.348Z,39.90
2019-04-05T06:12:11.638Z,42.97
2019-04-05T06:14:40.925Z,41.77
2019-04-05T06:17:10.753Z,40.73
2019-04-05T06:19:59.198Z,38.47
2019-04-05T06:22:28.497Z,39.97
2019-04-05T06:24:57.833Z,36.07
2019-04-05T06:27:27.130Z,38.80
2019-04-05T06:29:56.525Z,42.13
2019-04-05T06:32:26.278Z,40.20
2019-04-05T06:34:55.964Z,39.33
2019-04-05T06:37:25.340Z,39.93
2019-04-05T06:39:55.045Z,41.30
2019-04-05T06:42:24.318Z,38.23
2019-04-05T06:44:53.635Z,38.67
2019-04-05T06:47:23.323Z,36.90
2019-04-05T06:49:53.342Z,38.33
2019-04-05T06:52:23.020Z,41.43
2019-04-05T06:54:52.702Z,40.20
2019-04-05T06:57:22.003Z,38.27
2019-04-05T06:59:51.356Z,39.97
2019-04-05T07:02:21.074Z,39.73
2019-04-05T07:04:50.351Z,42.33
2019-04-05T07:07:19.639Z,41.37
2019-04-05T07:09:49.105Z,43.40
2019-04-05T07:12:20.554Z,39.47
2019-04-05T07:14:49.395Z,42.07
2019-04-05T07:17:18.985Z,40.33
2019-04-05T07:19:49.002Z,40.63
2019-04-05T07:22:31.903Z,41.17
2019-04-05T07:24:49.593Z,38.23
2019-04-05T07:27:19.408Z,39.17
2019-04-05T07:29:48.697Z,39.00
2019-04-05T07:32:18.433Z,42.30
2019-04-05T07:34:47.759Z,41.70
2019-04-05T07:37:17.113Z,39.37
2019-04-05T07:39:46.430Z,39.57
2019-04-05T07:42:15.763Z,39.47
2019-04-05T07:44:45.522Z,41.70
2019-04-05T07:47:15.241Z,39.80
2019-04-05T07:49:44.888Z,38.20
2019-04-05T07:52:14.573Z,37.20
2019-04-05T07:54:43.882Z,37.50
2019-04-05T07:57:13.327Z,42.20
2019-04-05T07:59:42.636Z,38.20
2019-04-05T08:02:12.378Z,38.20
2019-04-05T08:04:41.724Z,38.57
2019-04-05T08:07:11.042Z,37.10
2019-04-05T08:09:40.435Z,36.77
2019-04-05T08:12:09.756Z,38.47
2019-04-05T08:14:39.518Z,36.83
2019-04-05T08:17:08.836Z,37.00
2019-04-05T08:19:39.711Z,39.40
2019-04-05T08:22:14.115Z,37.23
2019-04-05T08:24:44.919Z,37.03
2019-04-05T08:27:15.613Z,37.83
2019-04-05T08:29:50.722Z,36.80
2019-04-05T08:32:21.802Z,35.67
2019-04-05T08:34:52.760Z,37.40
2019-04-05T08:37:24.817Z,37.03
2019-04-05T08:39:58.175Z,37.73
2019-04-05T08:42:33.224Z,34.47
2019-04-05T08:45:04.789Z,37.90
2019-04-05T08:47:37.264Z,37.23
2019-04-05T08:50:06.774Z,36.80
2019-04-05T08:52:36.477Z,37.57
2019-04-05T08:55:05.958Z,38.37
2019-04-05T08:57:35.254Z,37.20
2019-04-05T09:00:05.171Z,34.77
2019-04-05T09:02:34.924Z,37.47
2019-04-05T09:05:04.304Z,35.97
2019-04-05T09:07:33.958Z,37.23
2019-04-05T09:10:03.775Z,38.27
2019-04-05T09:12:33.110Z,36.20
2019-04-05T09:15:03.070Z,35.83
2019-04-05T09:17:32.435Z,37.97
2019-04-05T09:20:02.054Z,35.70
2019-04-05T09:22:31.383Z,36.90
2019-04-05T09:25:00.664Z,37.17
2019-04-05T09:27:29.980Z,39.10
2019-04-05T09:29:59.784Z,39.23
2019-04-05T09:32:29.166Z,38.10
2019-04-05T09:34:58.482Z,37.70
2019-04-05T09:37:27.787Z,38.70
2019-04-05T09:39:57.403Z,37.87
2019-04-05T09:42:26.694Z,37.00
2019-04-05T09:44:56.027Z,38.33
2019-04-05T09:47:25.727Z,37.63
2019-04-05T09:49:55.070Z,39.47
2019-04-05T09:52:25.349Z,38.17
2019-04-05T09:54:55.080Z,37.23
2019-04-05T09:57:24.986Z,37.77
2019-04-05T09:59:54.790Z,38.57
2019-04-05T10:02:24.142Z,37.03
2019-04-05T10:05:12.962Z,40.37
2019-04-05T10:07:54.133Z,37.70
2019-04-05T10:10:13.218Z,36.03
2019-04-05T10:12:42.527Z,36.03
2019-04-05T10:15:12.003Z,37.97
2019-04-05T10:17:41.708Z,36.23
2019-04-05T10:20:11.060Z,37.60
2019-04-05T10:22:40.366Z,36.50
2019-04-05T10:25:09.765Z,36.23
2019-04-05T10:27:39.378Z,37.10
2019-04-05T10:30:10.206Z,38.07
2019-04-05T10:32:39.546Z,37.63
2019-04-05T10:35:09.305Z,37.90
2019-04-05T10:37:38.627Z,36.80
2019-04-05T10:40:08.615Z,37.20
2019-04-05T10:42:38.350Z,36.07
2019-04-05T10:45:09.530Z,37.23
2019-04-05T10:47:38.913Z,35.87
2019-04-05T10:50:09.494Z,36.90
2019-04-05T10:52:38.890Z,36.30
2019-04-05T10:55:08.251Z,38.53
2019-04-05T10:57:38.163Z,38.47
2019-04-05T11:00:10.268Z,38.27
2019-04-05T11:02:39.615Z,36.80
2019-04-05T11:05:08.951Z,36.57
2019-04-05T11:07:38.275Z,37.63
2019-04-05T11:10:07.947Z,39.30
2019-04-05T11:12:37.562Z,38.50
2019-04-05T11:15:07.090Z,37.43
2019-04-05T11:17:37.332Z,38.93
2019-04-05T11:20:20.686Z,37.37
2019-04-05T11:22:40.322Z,36.77
2019-04-05T11:25:09.781Z,37.10
2019-04-05T11:27:39.259Z,38.20
2019-04-05T11:30:08.648Z,39.00
2019-04-05T11:32:38.503Z,38.67
2019-04-05T11:35:08.281Z,38.60
2019-04-05T11:37:39.659Z,38.87
2019-04-05T11:40:11.197Z,38.30
2019-04-05T11:42:40.903Z,37.70
2019-04-05T11:45:10.724Z,37.90
2019-04-05T11:47:40.188Z,40.90
2019-04-05T11:50:10.264Z,38.90
2019-04-05T11:52:39.993Z,38.47
2019-04-05T11:55:09.295Z,39.50
2019-04-05T11:57:41.008Z,38.20
2019-04-05T12:00:14.119Z,37.67
2019-04-05T12:02:56.861Z,37.60
2019-04-05T12:05:27.140Z,38.70
2019-04-05T12:08:00.928Z,40.20
2019-04-05T12:10:28.180Z,38.50
2019-04-05T12:12:57.985Z,37.60
2019-04-05T12:15:27.627Z,37.20
2019-04-05T12:17:57.518Z,37.43
2019-04-05T12:20:26.880Z,39.03
2019-04-05T12:22:56.243Z,40.93
2019-04-05T12:25:25.827Z,38.00
2019-04-05T12:28:05.577Z,39.50
2019-04-05T12:30:26.856Z,39.00
2019-04-05T12:32:56.220Z,38.70
2019-04-05T12:35:25.534Z,39.50
2019-04-05T12:37:55.811Z,40.60
2019-04-05T12:40:25.701Z,40.00
2019-04-05T12:42:56.740Z,37.30
2019-04-05T12:45:26.076Z,38.67
2019-04-05T12:47:58.974Z,39.20
2019-04-05T12:50:27.399Z,41.47
2019-04-05T12:52:57.422Z,38.33
2019-04-05T12:55:27.518Z,38.77
2019-04-05T12:57:57.251Z,38.60
2019-04-05T13:00:27.414Z,39.30
2019-04-05T13:02:57.293Z,41.23
2019-04-05T13:05:26.898Z,37.97
2019-04-05T13:07:56.693Z,38.13
2019-04-05T13:10:26.606Z,39.60
2019-04-05T13:12:57.975Z,38.50
2019-04-05T13:15:28.109Z,38.60
2019-04-05T13:18:00.308Z,37.20
2019-04-05T13:20:30.439Z,39.13
2019-04-05T13:23:06.526Z,38.70
2019-04-05T13:25:36.088Z,41.10
2019-04-05T13:28:13.131Z,39.70
2019-04-05T13:30:38.192Z,39.93
2019-04-05T13:33:08.594Z,38.67
2019-04-05T13:35:38.412Z,40.37
2019-04-05T13:38:09.835Z,39.80
2019-04-05T13:40:39.226Z,38.50
2019-04-05T13:43:08.907Z,39.47
2019-04-05T13:45:39.298Z,38.20
2019-04-05T13:48:09.691Z,36.90
2019-04-05T13:50:41.732Z,38.67
2019-04-05T13:53:11.995Z,39.63
2019-04-05T13:55:42.045Z,39.50
2019-04-05T13:58:12.069Z,38.97
2019-04-05T14:00:41.447Z,39.00
2019-04-05T14:03:10.794Z,37.93
2019-04-05T14:05:40.101Z,38.90
2019-04-05T14:08:11.002Z,39.20
2019-04-05T14:10:41.877Z,39.00
2019-04-05T14:13:11.382Z,39.33
2019-04-05T14:15:42.391Z,39.40
2019-04-05T14:18:14.342Z,41.33
2019-04-05T14:20:43.346Z,39.70
2019-04-05T14:23:12.655Z,39.67
2019-04-05T14:25:42.003Z,38.83
2019-04-05T14:28:11.297Z,38.30
2019-04-05T14:30:46.766Z,36.90
2019-04-05T14:33:16.201Z,36.70
2019-04-05T14:35:45.510Z,37.17
2019-04-05T14:38:15.294Z,37.57
2019-04-05T14:40:44.578Z,36.87
2019-04-05T14:43:15.132Z,37.20
2019-04-05T14:45:44.846Z,39.13
2019-04-05T14:48:14.206Z,38.00
2019-04-05T14:50:43.826Z,39.30
2019-04-05T14:53:13.410Z,39.10
2019-04-05T14:55:42.861Z,38.93
2019-04-05T14:58:12.158Z,38.90
2019-04-05T15:00:41.475Z,37.97
2019-04-05T15:03:10.791Z,38.23
2019-04-05T15:05:40.176Z,40.23
2019-04-05T15:08:09.466Z,36.00
2019-04-05T15:10:38.779Z,37.73
2019-04-05T15:13:08.856Z,37.93
2019-04-05T15:15:38.224Z,36.60
2019-04-05T15:18:07.572Z,34.73
2019-04-05T15:20:37.163Z,36.93
2019-04-05T15:23:09.318Z,38.73
2019-04-05T15:25:37.577Z,37.57
2019-04-05T15:28:06.895Z,36.07
2019-04-05T15:30:36.194Z,37.33
2019-04-05T15:33:05.891Z,37.93
2019-04-05T15:35:35.208Z,36.17
2019-04-05T15:38:04.830Z,37.40
2019-04-05T15:40:34.506Z,38.10
2019-04-05T15:43:03.889Z,38.23
2019-04-05T15:45:33.243Z,37.37
2019-04-05T15:48:03.039Z,36.40
2019-04-05T15:50:32.338Z,35.20
2019-04-05T15:53:02.323Z,37.20
2019-04-05T15:55:34.307Z,37.70
2019-04-05T15:58:03.691Z,36.50
2019-04-05T16:00:43.697Z,34.47
2019-04-05T16:03:13.090Z,35.43
2019-04-05T16:05:42.427Z,37.13
2019-04-05T16:08:11.724Z,35.10
2019-04-05T16:10:41.261Z,35.50
2019-04-05T16:13:10.568Z,35.20
2019-04-05T16:15:39.857Z,37.20
2019-04-05T16:18:09.179Z,35.00
2019-04-05T16:20:38.457Z,35.27
2019-04-05T16:23:07.770Z,35.73
2019-04-05T16:25:37.176Z,36.53
2019-04-05T16:28:06.488Z,35.43
2019-04-05T16:30:35.907Z,37.00
2019-04-05T16:33:05.524Z,35.17
2019-04-05T16:35:34.862Z,34.20
2019-04-05T16:38:04.315Z,34.90
2019-04-05T16:40:34.459Z,36.50
2019-04-05T16:43:03.839Z,34.50
2019-04-05T16:45:33.671Z,34.73
2019-04-05T16:48:02.969Z,35.90
2019-04-05T16:50:32.246Z,33.33
2019-04-05T16:53:01.573Z,33.57
2019-04-05T16:55:30.866Z,36.43
2019-04-05T16:58:00.586Z,34.93
2019-04-05T17:00:29.983Z,35.63
2019-04-05T17:02:59.327Z,34.00
2019-04-05T17:05:28.874Z,34.70
2019-04-05T17:07:58.229Z,33.17
2019-04-05T17:10:27.526Z,36.43
2019-04-05T17:12:56.906Z,32.73
2019-04-05T17:15:26.239Z,32.53
2019-04-05T17:17:55.540Z,35.00
2019-04-05T17:20:24.872Z,34.70
2019-04-05T17:22:58.449Z,35.20
2019-04-05T17:25:25.153Z,36.00
2019-04-05T17:27:54.938Z,32.60
2019-04-05T17:30:24.243Z,34.17
2019-04-05T17:32:54.041Z,34.03
2019-04-05T17:35:23.358Z,35.73
2019-04-05T17:37:54.670Z,34.17
2019-04-05T17:40:24.120Z,33.80
2019-04-05T17:42:53.748Z,37.53
2019-04-05T17:45:23.206Z,37.20
2019-04-05T17:48:11.769Z,31.93
2019-04-05T17:50:41.062Z,33.83
2019-04-05T17:53:13.192Z,34.40
2019-04-05T17:55:41.304Z,33.83
2019-04-05T17:58:10.860Z,35.60
2019-04-05T18:00:40.620Z,33.00
2019-04-05T18:03:09.908Z,32.63
2019-04-05T18:05:39.273Z,33.63
2019-04-05T18:08:08.905Z,34.33
2019-04-05T18:10:38.244Z,33.73
2019-04-05T18:13:07.534Z,33.23
2019-04-05T18:15:36.855Z,34.43
2019-04-05T18:18:06.158Z,34.27
2019-04-05T18:20:36.226Z,35.33
2019-04-05T18:23:05.577Z,32.80
2019-04-05T18:25:34.874Z,34.97
2019-04-05T18:28:04.913Z,34.50
2019-04-05T18:30:34.205Z,34.60
2019-04-05T18:33:04.103Z,36.00
2019-04-05T18:35:34.950Z,33.13
2019-04-05T18:38:04.238Z,34.30
2019-04-05T18:40:40.108Z,33.70
2019-04-05T18:43:05.236Z,34.80
2019-04-05T18:45:35.038Z,33.30
2019-04-05T18:48:04.798Z,33.50
2019-04-05T18:50:34.114Z,34.77
2019-04-05T18:53:03.472Z,34.20
2019-04-05T18:55:32.983Z,32.80
2019-04-05T18:58:03.762Z,35.40
2019-04-05T19:00:33.097Z,34.33
2019-04-05T19:03:02.870Z,33.07
2019-04-05T19:05:32.755Z,33.53
2019-04-05T19:08:02.104Z,34.30
2019-04-05T19:10:37.267Z,34.10
2019-04-05T19:13:02.957Z,35.57
2019-04-05T19:15:32.255Z,35.37
2019-04-05T19:18:01.919Z,35.00
2019-04-05T19:20:31.499Z,34.47
2019-04-05T19:23:00.850Z,36.07
2019-04-05T19:25:30.143Z,32.43
2019-04-05T19:27:59.939Z,36.60
2019-04-05T19:50:39.535Z,31.83
2019-04-05T19:53:08.885Z,32.20
2019-04-05T19:55:38.564Z,31.10
2019-04-05T19:58:08.054Z,31.00
2019-04-05T20:00:37.859Z,31.50
2019-04-05T20:03:07.201Z,30.47
2019-04-05T20:05:36.575Z,31.20
2019-04-05T20:08:05.910Z,29.90
2019-04-05T20:10:35.538Z,30.60
2019-04-05T20:13:04.840Z,31.43
2019-04-05T20:15:34.666Z,29.43
2019-04-05T20:18:04.235Z,32.73
2019-04-05T20:20:33.626Z,30.37
2019-04-05T20:23:03.447Z,30.00
2019-04-05T20:25:32.739Z,30.40
2019-04-05T20:28:02.344Z,28.00
2019-04-05T20:30:32.057Z,31.17
2019-04-05T20:33:01.902Z,30.00
2019-04-05T20:35:31.575Z,33.17
2019-04-05T20:38:00.871Z,29.87
2019-04-05T20:40:30.223Z,29.93
2019-04-05T20:42:59.967Z,28.50
2019-04-05T20:45:29.549Z,28.70
2019-04-05T20:47:58.887Z,30.80
2019-04-05T20:50:28.241Z,29.30
2019-04-05T20:52:57.837Z,29.80
2019-04-05T20:55:27.500Z,29.70
2019-04-05T20:57:57.030Z,30.00
2019-04-05T21:00:26.337Z,31.50
2019-04-05T21:02:55.608Z,33.30
2019-04-05T21:05:25.746Z,28.73
2019-04-05T21:07:55.162Z,30.93
2019-04-05T21:10:24.758Z,29.17
2019-04-05T21:12:54.611Z,28.57
2019-04-05T21:15:24.351Z,29.90
2019-04-05T21:17:53.654Z,30.50
2019-04-05T21:20:23.637Z,31.50
2019-04-05T21:22:53.489Z,29.17
2019-04-05T21:25:23.214Z,26.80
2019-04-05T21:27:52.891Z,29.13
2019-04-05T21:30:22.325Z,29.03
2019-04-05T21:32:52.141Z,31.30
2019-04-05T21:35:21.463Z,28.33
2019-04-05T21:37:50.787Z,28.60
2019-04-05T21:40:20.183Z,30.37
2019-04-05T21:42:49.934Z,29.40
2019-04-05T21:45:19.631Z,32.00
2019-04-05T21:47:49.109Z,33.40
2019-04-05T21:50:18.411Z,31.20
2019-04-05T21:52:47.722Z,31.43
2019-04-05T21:55:17.025Z,31.97
2019-04-05T21:57:46.472Z,31.40
2019-04-05T22:00:23.119Z,29.90
2019-04-05T22:02:52.402Z,30.57
2019-04-05T22:05:22.191Z,31.67
2019-04-05T22:07:51.724Z,30.73
2019-04-05T22:10:40.596Z,30.27
2019-04-05T22:13:10.006Z,31.77
2019-04-05T22:15:39.667Z,32.03
2019-04-05T22:18:08.963Z,30.13
2019-04-05T22:20:38.272Z,30.37
2019-04-05T22:23:26.709Z,30.70
2019-04-05T22:25:56.002Z,32.03
2019-04-05T22:28:25.334Z,30.50
2019-04-05T22:30:54.631Z,32.00
2019-04-05T22:33:43.091Z,31.40
2019-04-05T22:36:12.514Z,30.30
2019-04-05T22:39:00.953Z,29.63
2019-04-05T22:41:30.281Z,29.60
2019-04-05T22:43:59.594Z,29.77
2019-04-05T22:46:29.286Z,30.73
2019-04-05T22:48:58.586Z,29.60
2019-04-05T22:51:28.298Z,29.53
2019-04-05T22:54:16.774Z,28.83
2019-04-05T22:56:46.071Z,30.27
2019-04-05T22:59:16.087Z,29.00
2019-04-05T23:02:04.510Z,29.97
2019-04-05T23:04:33.802Z,29.60
2019-04-05T23:07:03.141Z,28.70
2019-04-05T23:09:32.781Z,31.30
2019-04-05T23:12:02.075Z,28.67
2019-04-05T23:14:31.424Z,30.57
2019-04-05T23:17:00.694Z,29.60
2019-04-05T23:19:29.978Z,29.03
2019-04-05T23:22:00.902Z,30.20
2019-04-05T23:24:30.400Z,30.30
2019-04-05T23:26:59.672Z,29.77
2019-04-05T23:29:28.969Z,32.53
2019-04-05T23:31:58.253Z,29.67
2019-04-05T23:34:27.664Z,32.30
2019-04-05T23:36:57.689Z,32.77
2019-04-05T23:39:27.330Z,33.57
2019-04-05T23:41:56.647Z,31.40
2019-04-05T23:44:25.944Z,29.90
2019-04-05T23:46:55.621Z,30.90
2019-04-05T23:49:25.228Z,28.50
2019-04-05T23:51:54.698Z,31.60
2019-04-05T23:54:23.985Z,31.00
2019-04-05T23:56:53.293Z,28.43
2019-04-05T23:59:22.607Z,27.67
